Arapahoe, Colorado
Current Conditions -  °F | °C
As of 1:53 AM on Friday 24 Oct 2014 (Local Time) from KITR Reporting Station
Clear Clear  
Wind Chill: 12°   Ceiling: Unl
Heat Index: 12°   Visibility: 10mi
Dew Point:   Wind: 10mph
Humidity: 74%   Direction: 240°WSW
Pressure: 30.1"   Gusts: NA
Location:  38.85°N, 102.18°W
Report Text: KITR 240753Z AUTO 24009KT 10SM CLR 12/07 A3010 RMK AO2 SLP152 T01170072
Loading
Personal Weather Stations






























Interactive Weather Map
Tropical Storm Tracking
New forecast layout! Learn more

10-Day Weather Forecast

Advertisements
Track Severe Weather on mobile